sensor_id;sensor_type;location;lat;lon;timestamp;P1;durP1;ratioP1;P2;durP2;ratioP2
6089;SDS011;3073;42.660;23.316;2023-02-15T00:01:28;44.77;;;25.33;;
6089;SDS011;3073;42.660;23.316;2023-02-15T00:03:55;47.83;;;26.90;;
6089;SDS011;3073;42.660;23.316;2023-02-15T00:06:23;48.13;;;27.40;;
6089;SDS011;3073;42.660;23.316;2023-02-15T00:08:50;45.73;;;27.43;;
6089;SDS011;3073;42.660;23.316;2023-02-15T00:11:17;48.17;;;26.80;;
6089;SDS011;3073;42.660;23.316;2023-02-15T00:14:04;45.90;;;26.03;;
6089;SDS011;3073;42.660;23.316;2023-02-15T00:16:33;44.93;;;26.40;;
6089;SDS011;3073;42.660;23.316;2023-02-15T00:19:00;46.77;;;27.03;;
6089;SDS011;3073;42.660;23.316;2023-02-15T00:21:28;47.43;;;25.53;;
6089;SDS011;3073;42.660;23.316;2023-02-15T00:23:56;50.00;;;28.37;;
6089;SDS011;3073;42.660;23.316;2023-02-15T00:26:23;45.80;;;25.37;;
6089;SDS011;3073;42.660;23.316;2023-02-15T00:28:51;48.60;;;26.63;;
6089;SDS011;3073;42.660;23.316;2023-02-15T00:31:17;48.63;;;28.07;;
6089;SDS011;3073;42.660;23.316;2023-02-15T00:33:44;47.80;;;24.67;;
6089;SDS011;3073;42.660;23.316;2023-02-15T00:36:11;43.97;;;26.80;;
6089;SDS011;3073;42.660;23.316;2023-02-15T00:38:40;40.80;;;24.20;;
6089;SDS011;3073;42.660;23.316;2023-02-15T00:41:07;45.50;;;25.67;;
6089;SDS011;3073;42.660;23.316;2023-02-15T00:43:35;41.37;;;24.37;;
6089;SDS011;3073;42.660;23.316;2023-02-15T00:46:03;47.20;;;26.57;;
6089;SDS011;3073;42.660;23.316;2023-02-15T00:48:31;44.93;;;25.87;;
6089;SDS011;3073;42.660;23.316;2023-02-15T00:50:58;47.00;;;26.23;;
6089;SDS011;3073;42.660;23.316;2023-02-15T00:53:26;43.57;;;25.67;;
6089;SDS011;3073;42.660;23.316;2023-02-15T00:55:55;46.20;;;25.13;;
6089;SDS011;3073;42.660;23.316;2023-02-15T00:58:22;40.70;;;24.17;;
6089;SDS011;3073;42.660;23.316;2023-02-15T01:00:49;42.07;;;24.20;;
6089;SDS011;3073;42.660;23.316;2023-02-15T01:03:17;45.57;;;25.20;;
6089;SDS011;3073;42.660;23.316;2023-02-15T01:05:46;41.50;;;22.60;;
6089;SDS011;3073;42.660;23.316;2023-02-15T01:08:14;47.63;;;26.03;;
6089;SDS011;3073;42.660;23.316;2023-02-15T01:10:41;48.63;;;24.97;;
6089;SDS011;3073;42.660;23.316;2023-02-15T01:13:18;40.97;;;24.10;;
6089;SDS011;3073;42.660;23.316;2023-02-15T01:15:45;40.50;;;23.97;;
6089;SDS011;3073;42.660;23.316;2023-02-15T01:18:18;44.77;;;25.90;;
6089;SDS011;3073;42.660;23.316;2023-02-15T01:20:45;44.43;;;25.47;;
6089;SDS011;3073;42.660;23.316;2023-02-15T01:23:12;43.20;;;25.03;;
6089;SDS011;3073;42.660;23.316;2023-02-15T01:25:39;42.83;;;24.77;;
6089;SDS011;3073;42.660;23.316;2023-02-15T01:28:07;45.10;;;26.43;;
6089;SDS011;3073;42.660;23.316;2023-02-15T01:30:35;40.07;;;23.27;;
6089;SDS011;3073;42.660;23.316;2023-02-15T01:33:02;44.33;;;24.43;;
6089;SDS011;3073;42.660;23.316;2023-02-15T01:35:29;40.80;;;24.67;;
6089;SDS011;3073;42.660;23.316;2023-02-15T01:37:56;41.87;;;25.20;;
6089;SDS011;3073;42.660;23.316;2023-02-15T01:40:23;37.10;;;23.33;;
6089;SDS011;3073;42.660;23.316;2023-02-15T01:42:51;39.20;;;24.90;;
6089;SDS011;3073;42.660;23.316;2023-02-15T01:45:20;42.87;;;24.97;;
6089;SDS011;3073;42.660;23.316;2023-02-15T01:47:52;44.43;;;24.33;;
6089;SDS011;3073;42.660;23.316;2023-02-15T01:50:22;46.37;;;27.40;;
6089;SDS011;3073;42.660;23.316;2023-02-15T01:52:54;42.80;;;23.50;;
6089;SDS011;3073;42.660;23.316;2023-02-15T01:55:25;43.33;;;24.40;;
6089;SDS011;3073;42.660;23.316;2023-02-15T01:57:58;46.57;;;25.00;;
6089;SDS011;3073;42.660;23.316;2023-02-15T02:00:25;44.80;;;24.43;;
6089;SDS011;3073;42.660;23.316;2023-02-15T02:02:54;53.30;;;25.30;;
6089;SDS011;3073;42.660;23.316;2023-02-15T02:05:23;45.60;;;25.67;;
6089;SDS011;3073;42.660;23.316;2023-02-15T02:07:51;50.67;;;26.27;;
6089;SDS011;3073;42.660;23.316;2023-02-15T02:10:20;42.30;;;24.37;;
6089;SDS011;3073;42.660;23.316;2023-02-15T02:12:49;46.60;;;26.00;;
6089;SDS011;3073;42.660;23.316;2023-02-15T02:15:18;44.57;;;24.97;;
6089;SDS011;3073;42.660;23.316;2023-02-15T02:17:54;40.40;;;24.80;;
6089;SDS011;3073;42.660;23.316;2023-02-15T02:23:38;37.73;;;22.20;;
6089;SDS011;3073;42.660;23.316;2023-02-15T02:26:26;44.03;;;25.20;;
6089;SDS011;3073;42.660;23.316;2023-02-15T02:29:17;42.90;;;23.23;;
6089;SDS011;3073;42.660;23.316;2023-02-15T02:32:11;42.00;;;24.93;;
6089;SDS011;3073;42.660;23.316;2023-02-15T02:35:00;37.57;;;23.87;;
6089;SDS011;3073;42.660;23.316;2023-02-15T02:37:36;45.37;;;23.50;;
6089;SDS011;3073;42.660;23.316;2023-02-15T02:40:08;40.80;;;24.10;;
6089;SDS011;3073;42.660;23.316;2023-02-15T02:42:43;43.87;;;22.77;;
6089;SDS011;3073;42.660;23.316;2023-02-15T02:45:16;39.60;;;23.27;;
6089;SDS011;3073;42.660;23.316;2023-02-15T02:47:48;42.50;;;24.90;;
6089;SDS011;3073;42.660;23.316;2023-02-15T02:50:23;36.43;;;21.50;;
6089;SDS011;3073;42.660;23.316;2023-02-15T02:52:52;40.37;;;23.47;;
6089;SDS011;3073;42.660;23.316;2023-02-15T02:55:21;37.50;;;23.43;;
6089;SDS011;3073;42.660;23.316;2023-02-15T02:57:53;39.83;;;22.63;;
6089;SDS011;3073;42.660;23.316;2023-02-15T03:00:22;39.03;;;20.50;;
6089;SDS011;3073;42.660;23.316;2023-02-15T03:02:53;40.90;;;23.90;;
6089;SDS011;3073;42.660;23.316;2023-02-15T03:05:26;40.90;;;23.40;;
6089;SDS011;3073;42.660;23.316;2023-02-15T03:07:55;36.73;;;22.30;;
6089;SDS011;3073;42.660;23.316;2023-02-15T03:10:26;38.90;;;21.70;;
6089;SDS011;3073;42.660;23.316;2023-02-15T03:12:54;37.97;;;21.27;;
6089;SDS011;3073;42.660;23.316;2023-02-15T03:15:24;43.87;;;22.83;;
6089;SDS011;3073;42.660;23.316;2023-02-15T03:18:16;39.10;;;22.10;;
6089;SDS011;3073;42.660;23.316;2023-02-15T03:20:47;37.17;;;20.80;;
6089;SDS011;3073;42.660;23.316;2023-02-15T03:23:16;34.87;;;19.27;;
6089;SDS011;3073;42.660;23.316;2023-02-15T03:25:48;34.67;;;21.27;;
6089;SDS011;3073;42.660;23.316;2023-02-15T03:28:19;35.20;;;20.43;;
6089;SDS011;3073;42.660;23.316;2023-02-15T03:30:51;40.50;;;23.17;;
6089;SDS011;3073;42.660;23.316;2023-02-15T03:33:21;35.27;;;21.10;;
6089;SDS011;3073;42.660;23.316;2023-02-15T03:35:54;34.63;;;20.07;;
6089;SDS011;3073;42.660;23.316;2023-02-15T03:38:28;35.10;;;20.50;;
6089;SDS011;3073;42.660;23.316;2023-02-15T03:41:00;36.37;;;20.70;;
6089;SDS011;3073;42.660;23.316;2023-02-15T03:43:40;35.00;;;22.33;;
6089;SDS011;3073;42.660;23.316;2023-02-15T03:46:15;36.53;;;21.23;;
6089;SDS011;3073;42.660;23.316;2023-02-15T03:48:49;36.33;;;22.30;;
6089;SDS011;3073;42.660;23.316;2023-02-15T03:51:21;37.83;;;22.33;;
6089;SDS011;3073;42.660;23.316;2023-02-15T03:53:59;39.90;;;19.77;;
6089;SDS011;3073;42.660;23.316;2023-02-15T03:56:27;34.20;;;20.63;;
6089;SDS011;3073;42.660;23.316;2023-02-15T03:58:54;40.50;;;22.43;;
6089;SDS011;3073;42.660;23.316;2023-02-15T04:01:39;41.70;;;23.80;;
6089;SDS011;3073;42.660;23.316;2023-02-15T04:04:29;38.17;;;22.73;;
6089;SDS011;3073;42.660;23.316;2023-02-15T04:07:00;39.40;;;22.20;;
6089;SDS011;3073;42.660;23.316;2023-02-15T04:09:27;34.70;;;21.23;;
6089;SDS011;3073;42.660;23.316;2023-02-15T04:12:11;33.90;;;21.33;;
6089;SDS011;3073;42.660;23.316;2023-02-15T04:14:38;34.17;;;20.40;;
6089;SDS011;3073;42.660;23.316;2023-02-15T04:17:22;42.17;;;25.07;;
6089;SDS011;3073;42.660;23.316;2023-02-15T04:19:49;35.63;;;21.83;;
6089;SDS011;3073;42.660;23.316;2023-02-15T04:22:34;36.10;;;19.73;;
6089;SDS011;3073;42.660;23.316;2023-02-15T04:25:18;40.70;;;22.80;;
6089;SDS011;3073;42.660;23.316;2023-02-15T04:27:45;36.17;;;21.63;;
6089;SDS011;3073;42.660;23.316;2023-02-15T04:30:15;37.13;;;22.03;;
6089;SDS011;3073;42.660;23.316;2023-02-15T04:32:43;39.30;;;21.23;;
6089;SDS011;3073;42.660;23.316;2023-02-15T04:35:10;38.47;;;22.17;;
6089;SDS011;3073;42.660;23.316;2023-02-15T04:37:38;37.70;;;21.30;;
6089;SDS011;3073;42.660;23.316;2023-02-15T04:40:07;38.17;;;22.47;;
6089;SDS011;3073;42.660;23.316;2023-02-15T04:42:35;36.80;;;20.97;;
6089;SDS011;3073;42.660;23.316;2023-02-15T04:45:02;38.53;;;22.20;;
6089;SDS011;3073;42.660;23.316;2023-02-15T04:47:29;37.00;;;22.03;;
6089;SDS011;3073;42.660;23.316;2023-02-15T04:49:56;42.20;;;23.70;;
6089;SDS011;3073;42.660;23.316;2023-02-15T04:52:23;35.40;;;22.40;;
6089;SDS011;3073;42.660;23.316;2023-02-15T04:54:51;41.70;;;22.73;;
6089;SDS011;3073;42.660;23.316;2023-02-15T04:57:18;43.10;;;23.40;;
6089;SDS011;3073;42.660;23.316;2023-02-15T04:59:45;37.20;;;21.90;;
6089;SDS011;3073;42.660;23.316;2023-02-15T05:02:12;37.93;;;21.77;;
6089;SDS011;3073;42.660;23.316;2023-02-15T05:04:39;42.70;;;23.13;;
6089;SDS011;3073;42.660;23.316;2023-02-15T05:07:06;33.20;;;21.27;;
6089;SDS011;3073;42.660;23.316;2023-02-15T05:09:32;38.97;;;22.77;;
6089;SDS011;3073;42.660;23.316;2023-02-15T05:12:01;37.43;;;22.10;;
6089;SDS011;3073;42.660;23.316;2023-02-15T05:14:27;37.87;;;22.40;;
6089;SDS011;3073;42.660;23.316;2023-02-15T05:16:54;37.30;;;22.37;;
6089;SDS011;3073;42.660;23.316;2023-02-15T05:19:21;32.90;;;20.80;;
6089;SDS011;3073;42.660;23.316;2023-02-15T05:21:49;41.10;;;22.67;;
6089;SDS011;3073;42.660;23.316;2023-02-15T05:24:16;40.27;;;22.20;;
6089;SDS011;3073;42.660;23.316;2023-02-15T05:27:02;37.50;;;21.20;;
6089;SDS011;3073;42.660;23.316;2023-02-15T05:29:46;37.07;;;21.93;;
6089;SDS011;3073;42.660;23.316;2023-02-15T05:32:13;36.83;;;21.73;;
6089;SDS011;3073;42.660;23.316;2023-02-15T05:34:40;38.37;;;22.10;;
6089;SDS011;3073;42.660;23.316;2023-02-15T05:37:07;38.83;;;23.30;;
6089;SDS011;3073;42.660;23.316;2023-02-15T05:39:34;39.17;;;20.77;;
6089;SDS011;3073;42.660;23.316;2023-02-15T05:42:02;33.10;;;20.40;;
6089;SDS011;3073;42.660;23.316;2023-02-15T05:44:29;39.50;;;21.00;;
6089;SDS011;3073;42.660;23.316;2023-02-15T05:46:56;37.17;;;21.97;;
6089;SDS011;3073;42.660;23.316;2023-02-15T05:49:22;36.00;;;20.40;;
6089;SDS011;3073;42.660;23.316;2023-02-15T05:51:49;36.40;;;22.40;;
6089;SDS011;3073;42.660;23.316;2023-02-15T05:54:16;35.87;;;20.10;;
6089;SDS011;3073;42.660;23.316;2023-02-15T05:56:43;36.30;;;20.90;;
6089;SDS011;3073;42.660;23.316;2023-02-15T05:59:11;39.47;;;21.90;;
6089;SDS011;3073;42.660;23.316;2023-02-15T06:01:38;36.37;;;20.10;;
6089;SDS011;3073;42.660;23.316;2023-02-15T06:04:05;39.57;;;22.40;;
6089;SDS011;3073;42.660;23.316;2023-02-15T06:06:32;36.73;;;21.20;;
6089;SDS011;3073;42.660;23.316;2023-02-15T06:08:59;43.77;;;23.33;;
6089;SDS011;3073;42.660;23.316;2023-02-15T06:11:26;37.27;;;21.80;;
6089;SDS011;3073;42.660;23.316;2023-02-15T06:13:53;38.60;;;22.27;;
6089;SDS011;3073;42.660;23.316;2023-02-15T06:16:21;41.13;;;22.30;;
6089;SDS011;3073;42.660;23.316;2023-02-15T06:18:48;39.80;;;21.07;;
6089;SDS011;3073;42.660;23.316;2023-02-15T06:21:15;33.53;;;20.37;;
6089;SDS011;3073;42.660;23.316;2023-02-15T06:23:45;37.10;;;20.40;;
6089;SDS011;3073;42.660;23.316;2023-02-15T06:26:12;36.93;;;21.60;;
6089;SDS011;3073;42.660;23.316;2023-02-15T06:28:39;34.00;;;19.93;;
6089;SDS011;3073;42.660;23.316;2023-02-15T06:31:07;34.03;;;21.20;;
6089;SDS011;3073;42.660;23.316;2023-02-15T06:33:35;34.60;;;21.40;;
6089;SDS011;3073;42.660;23.316;2023-02-15T06:36:02;34.80;;;19.90;;
6089;SDS011;3073;42.660;23.316;2023-02-15T06:38:32;36.73;;;20.37;;
6089;SDS011;3073;42.660;23.316;2023-02-15T06:40:59;37.47;;;21.17;;
6089;SDS011;3073;42.660;23.316;2023-02-15T06:43:26;33.73;;;19.30;;
6089;SDS011;3073;42.660;23.316;2023-02-15T06:45:53;31.87;;;19.70;;
6089;SDS011;3073;42.660;23.316;2023-02-15T06:48:20;42.97;;;18.77;;
6089;SDS011;3073;42.660;23.316;2023-02-15T06:50:48;38.80;;;20.30;;
6089;SDS011;3073;42.660;23.316;2023-02-15T06:53:15;35.37;;;19.53;;
6089;SDS011;3073;42.660;23.316;2023-02-15T06:55:42;32.00;;;18.13;;
6089;SDS011;3073;42.660;23.316;2023-02-15T06:58:08;35.60;;;19.83;;
6089;SDS011;3073;42.660;23.316;2023-02-15T07:00:35;32.30;;;18.17;;
6089;SDS011;3073;42.660;23.316;2023-02-15T07:03:02;29.57;;;18.53;;
6089;SDS011;3073;42.660;23.316;2023-02-15T07:05:32;31.40;;;18.80;;
6089;SDS011;3073;42.660;23.316;2023-02-15T07:08:02;27.10;;;16.93;;
6089;SDS011;3073;42.660;23.316;2023-02-15T07:10:29;30.13;;;17.70;;
6089;SDS011;3073;42.660;23.316;2023-02-15T07:12:55;28.00;;;16.17;;
6089;SDS011;3073;42.660;23.316;2023-02-15T07:15:21;28.03;;;17.20;;
6089;SDS011;3073;42.660;23.316;2023-02-15T07:17:48;25.50;;;16.33;;
6089;SDS011;3073;42.660;23.316;2023-02-15T07:20:16;26.70;;;17.17;;
6089;SDS011;3073;42.660;23.316;2023-02-15T07:22:45;29.77;;;15.83;;
6089;SDS011;3073;42.660;23.316;2023-02-15T07:25:13;30.43;;;17.37;;
6089;SDS011;3073;42.660;23.316;2023-02-15T07:27:41;25.63;;;16.47;;
6089;SDS011;3073;42.660;23.316;2023-02-15T07:30:09;24.70;;;15.20;;
6089;SDS011;3073;42.660;23.316;2023-02-15T07:32:39;23.83;;;15.33;;
6089;SDS011;3073;42.660;23.316;2023-02-15T07:35:26;26.30;;;15.93;;
6089;SDS011;3073;42.660;23.316;2023-02-15T07:37:53;24.37;;;16.07;;
6089;SDS011;3073;42.660;23.316;2023-02-15T07:40:22;25.97;;;16.07;;
6089;SDS011;3073;42.660;23.316;2023-02-15T07:42:49;26.70;;;16.10;;
6089;SDS011;3073;42.660;23.316;2023-02-15T07:45:21;27.67;;;15.03;;
6089;SDS011;3073;42.660;23.316;2023-02-15T07:47:48;27.20;;;17.00;;
6089;SDS011;3073;42.660;23.316;2023-02-15T07:50:18;33.93;;;15.73;;
6089;SDS011;3073;42.660;23.316;2023-02-15T07:52:44;28.43;;;16.23;;
6089;SDS011;3073;42.660;23.316;2023-02-15T07:55:11;26.83;;;15.77;;
6089;SDS011;3073;42.660;23.316;2023-02-15T07:57:42;22.53;;;15.07;;
6089;SDS011;3073;42.660;23.316;2023-02-15T08:00:11;25.70;;;14.17;;
6089;SDS011;3073;42.660;23.316;2023-02-15T08:02:39;28.40;;;15.20;;
6089;SDS011;3073;42.660;23.316;2023-02-15T08:05:06;25.17;;;15.30;;
6089;SDS011;3073;42.660;23.316;2023-02-15T08:07:33;27.67;;;15.97;;
6089;SDS011;3073;42.660;23.316;2023-02-15T08:10:00;27.43;;;16.13;;
6089;SDS011;3073;42.660;23.316;2023-02-15T08:12:27;29.20;;;17.37;;
6089;SDS011;3073;42.660;23.316;2023-02-15T08:14:55;29.53;;;17.07;;
6089;SDS011;3073;42.660;23.316;2023-02-15T08:17:22;26.37;;;15.07;;
6089;SDS011;3073;42.660;23.316;2023-02-15T08:19:49;22.23;;;13.60;;
6089;SDS011;3073;42.660;23.316;2023-02-15T08:22:16;26.33;;;14.90;;
6089;SDS011;3073;42.660;23.316;2023-02-15T08:24:43;26.33;;;15.23;;
6089;SDS011;3073;42.660;23.316;2023-02-15T08:27:10;25.70;;;15.80;;
6089;SDS011;3073;42.660;23.316;2023-02-15T08:29:38;25.10;;;15.93;;
6089;SDS011;3073;42.660;23.316;2023-02-15T08:32:09;24.60;;;15.00;;
6089;SDS011;3073;42.660;23.316;2023-02-15T08:34:38;26.10;;;14.43;;
6089;SDS011;3073;42.660;23.316;2023-02-15T08:37:08;26.00;;;15.53;;
6089;SDS011;3073;42.660;23.316;2023-02-15T08:39:35;29.60;;;16.20;;
6089;SDS011;3073;42.660;23.316;2023-02-15T08:42:02;26.77;;;14.30;;
6089;SDS011;3073;42.660;23.316;2023-02-15T08:44:29;23.67;;;14.80;;
6089;SDS011;3073;42.660;23.316;2023-02-15T08:46:56;26.13;;;16.30;;
6089;SDS011;3073;42.660;23.316;2023-02-15T08:49:30;24.10;;;15.80;;
6089;SDS011;3073;42.660;23.316;2023-02-15T08:51:57;24.77;;;15.70;;
6089;SDS011;3073;42.660;23.316;2023-02-15T08:54:24;31.07;;;16.97;;
6089;SDS011;3073;42.660;23.316;2023-02-15T08:56:51;25.17;;;16.00;;
6089;SDS011;3073;42.660;23.316;2023-02-15T08:59:19;24.90;;;14.97;;
6089;SDS011;3073;42.660;23.316;2023-02-15T09:01:47;28.70;;;14.67;;
6089;SDS011;3073;42.660;23.316;2023-02-15T09:04:16;24.47;;;14.97;;
6089;SDS011;3073;42.660;23.316;2023-02-15T09:06:44;27.50;;;15.20;;
6089;SDS011;3073;42.660;23.316;2023-02-15T09:09:12;24.53;;;14.10;;
6089;SDS011;3073;42.660;23.316;2023-02-15T09:11:40;26.90;;;15.33;;
6089;SDS011;3073;42.660;23.316;2023-02-15T09:14:09;27.13;;;14.90;;
6089;SDS011;3073;42.660;23.316;2023-02-15T09:16:38;24.40;;;15.40;;
6089;SDS011;3073;42.660;23.316;2023-02-15T09:19:07;26.57;;;15.93;;
6089;SDS011;3073;42.660;23.316;2023-02-15T09:21:35;26.53;;;15.43;;
6089;SDS011;3073;42.660;23.316;2023-02-15T09:24:05;29.27;;;14.90;;
6089;SDS011;3073;42.660;23.316;2023-02-15T09:26:34;23.53;;;14.27;;
6089;SDS011;3073;42.660;23.316;2023-02-15T09:29:03;28.83;;;16.03;;
6089;SDS011;3073;42.660;23.316;2023-02-15T09:31:30;31.30;;;18.20;;
6089;SDS011;3073;42.660;23.316;2023-02-15T09:33:59;24.40;;;15.80;;
6089;SDS011;3073;42.660;23.316;2023-02-15T09:36:29;20.90;;;14.30;;
6089;SDS011;3073;42.660;23.316;2023-02-15T09:38:58;30.37;;;16.73;;
6089;SDS011;3073;42.660;23.316;2023-02-15T09:41:36;25.40;;;15.07;;
6089;SDS011;3073;42.660;23.316;2023-02-15T09:44:22;29.10;;;16.87;;
6089;SDS011;3073;42.660;23.316;2023-02-15T09:47:10;25.67;;;15.60;;
6089;SDS011;3073;42.660;23.316;2023-02-15T09:49:53;29.50;;;16.93;;
6089;SDS011;3073;42.660;23.316;2023-02-15T09:52:36;29.50;;;16.40;;
6089;SDS011;3073;42.660;23.316;2023-02-15T09:55:17;38.50;;;18.57;;
6089;SDS011;3073;42.660;23.316;2023-02-15T09:57:57;30.70;;;17.47;;
6089;SDS011;3073;42.660;23.316;2023-02-15T10:00:31;32.53;;;18.37;;
6089;SDS011;3073;42.660;23.316;2023-02-15T10:03:11;30.87;;;18.30;;
6089;SDS011;3073;42.660;23.316;2023-02-15T10:05:53;31.40;;;17.70;;
6089;SDS011;3073;42.660;23.316;2023-02-15T10:08:36;26.20;;;15.83;;
6089;SDS011;3073;42.660;23.316;2023-02-15T10:11:14;28.47;;;18.50;;
6089;SDS011;3073;42.660;23.316;2023-02-15T10:14:06;30.77;;;17.87;;
6089;SDS011;3073;42.660;23.316;2023-02-15T10:16:45;29.03;;;17.83;;
6089;SDS011;3073;42.660;23.316;2023-02-15T10:19:20;29.13;;;18.10;;
6089;SDS011;3073;42.660;23.316;2023-02-15T10:22:01;29.87;;;17.87;;
6089;SDS011;3073;42.660;23.316;2023-02-15T10:24:43;27.47;;;17.87;;
6089;SDS011;3073;42.660;23.316;2023-02-15T10:27:20;30.70;;;18.63;;
6089;SDS011;3073;42.660;23.316;2023-02-15T10:29:52;27.80;;;18.50;;
6089;SDS011;3073;42.660;23.316;2023-02-15T10:32:30;27.80;;;17.83;;
6089;SDS011;3073;42.660;23.316;2023-02-15T10:35:05;29.83;;;19.57;;
6089;SDS011;3073;42.660;23.316;2023-02-15T10:37:51;28.80;;;18.67;;
6089;SDS011;3073;42.660;23.316;2023-02-15T10:40:28;29.33;;;17.63;;
6089;SDS011;3073;42.660;23.316;2023-02-15T10:43:08;33.90;;;17.80;;
6089;SDS011;3073;42.660;23.316;2023-02-15T10:45:49;29.50;;;17.60;;
6089;SDS011;3073;42.660;23.316;2023-02-15T10:48:28;26.70;;;17.17;;
6089;SDS011;3073;42.660;23.316;2023-02-15T10:51:08;25.00;;;16.40;;
6089;SDS011;3073;42.660;23.316;2023-02-15T10:53:52;29.77;;;17.80;;
6089;SDS011;3073;42.660;23.316;2023-02-15T10:56:32;29.90;;;18.80;;
6089;SDS011;3073;42.660;23.316;2023-02-15T10:59:06;25.77;;;17.10;;
6089;SDS011;3073;42.660;23.316;2023-02-15T11:01:51;29.97;;;19.63;;
6089;SDS011;3073;42.660;23.316;2023-02-15T11:07:16;30.20;;;17.97;;
6089;SDS011;3073;42.660;23.316;2023-02-15T11:09:48;28.90;;;18.47;;
6089;SDS011;3073;42.660;23.316;2023-02-15T11:12:19;31.33;;;18.00;;
6089;SDS011;3073;42.660;23.316;2023-02-15T11:14:51;29.07;;;18.60;;
6089;SDS011;3073;42.660;23.316;2023-02-15T11:17:25;25.33;;;18.20;;
6089;SDS011;3073;42.660;23.316;2023-02-15T11:19:58;26.10;;;18.13;;
6089;SDS011;3073;42.660;23.316;2023-02-15T11:22:34;26.83;;;18.37;;
6089;SDS011;3073;42.660;23.316;2023-02-15T11:25:02;29.80;;;19.20;;
6089;SDS011;3073;42.660;23.316;2023-02-15T11:27:42;27.07;;;18.17;;
6089;SDS011;3073;42.660;23.316;2023-02-15T11:30:13;31.80;;;18.73;;
6089;SDS011;3073;42.660;23.316;2023-02-15T11:32:47;25.77;;;17.90;;
6089;SDS011;3073;42.660;23.316;2023-02-15T11:35:19;27.23;;;18.67;;
6089;SDS011;3073;42.660;23.316;2023-02-15T11:37:51;24.60;;;18.27;;
6089;SDS011;3073;42.660;23.316;2023-02-15T11:40:24;26.40;;;18.63;;
6089;SDS011;3073;42.660;23.316;2023-02-15T11:42:55;27.53;;;19.07;;
6089;SDS011;3073;42.660;23.316;2023-02-15T11:45:26;28.13;;;18.50;;
6089;SDS011;3073;42.660;23.316;2023-02-15T11:47:58;24.10;;;17.60;;
6089;SDS011;3073;42.660;23.316;2023-02-15T11:50:26;30.30;;;20.37;;
6089;SDS011;3073;42.660;23.316;2023-02-15T11:52:56;30.17;;;18.97;;
6089;SDS011;3073;42.660;23.316;2023-02-15T11:55:25;26.77;;;18.70;;
6089;SDS011;3073;42.660;23.316;2023-02-15T11:57:55;29.93;;;17.37;;
6089;SDS011;3073;42.660;23.316;2023-02-15T12:00:30;25.83;;;17.73;;
6089;SDS011;3073;42.660;23.316;2023-02-15T12:03:03;26.70;;;18.50;;
6089;SDS011;3073;42.660;23.316;2023-02-15T12:05:39;31.30;;;20.80;;
6089;SDS011;3073;42.660;23.316;2023-02-15T12:08:11;31.40;;;20.57;;
6089;SDS011;3073;42.660;23.316;2023-02-15T12:10:43;32.87;;;20.27;;
6089;SDS011;3073;42.660;23.316;2023-02-15T12:13:23;34.20;;;21.57;;
6089;SDS011;3073;42.660;23.316;2023-02-15T12:15:51;30.70;;;20.37;;
6089;SDS011;3073;42.660;23.316;2023-02-15T12:18:24;34.00;;;20.57;;
6089;SDS011;3073;42.660;23.316;2023-02-15T12:21:02;31.30;;;20.90;;
6089;SDS011;3073;42.660;23.316;2023-02-15T12:23:32;35.13;;;21.60;;
6089;SDS011;3073;42.660;23.316;2023-02-15T12:25:59;33.90;;;21.40;;
6089;SDS011;3073;42.660;23.316;2023-02-15T12:28:30;31.57;;;21.33;;
6089;SDS011;3073;42.660;23.316;2023-02-15T12:31:00;30.40;;;20.83;;
6089;SDS011;3073;42.660;23.316;2023-02-15T12:33:31;32.43;;;20.63;;
6089;SDS011;3073;42.660;23.316;2023-02-15T12:36:02;30.70;;;20.97;;
6089;SDS011;3073;42.660;23.316;2023-02-15T12:38:35;31.83;;;21.33;;
6089;SDS011;3073;42.660;23.316;2023-02-15T12:41:03;30.77;;;21.50;;
6089;SDS011;3073;42.660;23.316;2023-02-15T12:43:32;37.50;;;21.00;;
6089;SDS011;3073;42.660;23.316;2023-02-15T12:48:48;32.60;;;20.40;;
6089;SDS011;3073;42.660;23.316;2023-02-15T12:51:42;29.20;;;20.47;;
6089;SDS011;3073;42.660;23.316;2023-02-15T12:54:26;30.23;;;20.17;;
6089;SDS011;3073;42.660;23.316;2023-02-15T12:56:56;26.83;;;19.57;;
6089;SDS011;3073;42.660;23.316;2023-02-15T12:59:24;31.43;;;20.47;;
6089;SDS011;3073;42.660;23.316;2023-02-15T13:01:51;29.93;;;20.10;;
6089;SDS011;3073;42.660;23.316;2023-02-15T13:04:23;29.50;;;19.60;;
6089;SDS011;3073;42.660;23.316;2023-02-15T13:06:52;28.17;;;19.80;;
6089;SDS011;3073;42.660;23.316;2023-02-15T13:09:23;30.20;;;19.53;;
6089;SDS011;3073;42.660;23.316;2023-02-15T13:12:08;30.30;;;20.27;;
6089;SDS011;3073;42.660;23.316;2023-02-15T13:14:37;31.73;;;21.53;;
6089;SDS011;3073;42.660;23.316;2023-02-15T13:17:09;34.60;;;21.07;;
6089;SDS011;3073;42.660;23.316;2023-02-15T13:19:40;30.00;;;20.03;;
6089;SDS011;3073;42.660;23.316;2023-02-15T13:22:13;29.10;;;20.10;;
6089;SDS011;3073;42.660;23.316;2023-02-15T13:24:43;35.13;;;20.43;;
6089;SDS011;3073;42.660;23.316;2023-02-15T13:27:15;29.57;;;21.37;;
6089;SDS011;3073;42.660;23.316;2023-02-15T13:29:45;29.80;;;20.47;;
6089;SDS011;3073;42.660;23.316;2023-02-15T13:32:21;31.03;;;21.37;;
6089;SDS011;3073;42.660;23.316;2023-02-15T13:34:55;28.17;;;20.67;;
6089;SDS011;3073;42.660;23.316;2023-02-15T13:37:31;33.33;;;20.80;;
6089;SDS011;3073;42.660;23.316;2023-02-15T13:40:10;34.97;;;20.50;;
6089;SDS011;3073;42.660;23.316;2023-02-15T13:42:42;29.60;;;21.00;;
6089;SDS011;3073;42.660;23.316;2023-02-15T13:45:24;32.40;;;20.83;;
6089;SDS011;3073;42.660;23.316;2023-02-15T13:48:00;28.33;;;18.97;;
6089;SDS011;3073;42.660;23.316;2023-02-15T13:50:48;29.90;;;20.23;;
6089;SDS011;3073;42.660;23.316;2023-02-15T13:53:27;33.23;;;20.07;;
6089;SDS011;3073;42.660;23.316;2023-02-15T13:56:17;33.23;;;20.50;;
6089;SDS011;3073;42.660;23.316;2023-02-15T13:58:57;35.10;;;20.00;;
6089;SDS011;3073;42.660;23.316;2023-02-15T14:01:38;30.60;;;19.63;;
6089;SDS011;3073;42.660;23.316;2023-02-15T14:04:15;28.00;;;20.03;;
6089;SDS011;3073;42.660;23.316;2023-02-15T14:10:10;32.27;;;21.30;;
6089;SDS011;3073;42.660;23.316;2023-02-15T14:12:56;32.07;;;20.93;;
6089;SDS011;3073;42.660;23.316;2023-02-15T14:15:44;36.40;;;21.70;;
6089;SDS011;3073;42.660;23.316;2023-02-15T14:18:17;33.80;;;20.50;;
6089;SDS011;3073;42.660;23.316;2023-02-15T14:20:54;32.27;;;20.40;;
6089;SDS011;3073;42.660;23.316;2023-02-15T14:23:33;38.00;;;22.43;;
6089;SDS011;3073;42.660;23.316;2023-02-15T14:26:11;31.33;;;20.57;;
6089;SDS011;3073;42.660;23.316;2023-02-15T14:28:49;36.53;;;22.50;;
6089;SDS011;3073;42.660;23.316;2023-02-15T14:31:22;37.37;;;21.63;;
6089;SDS011;3073;42.660;23.316;2023-02-15T14:33:56;35.67;;;21.23;;
6089;SDS011;3073;42.660;23.316;2023-02-15T14:36:25;35.57;;;21.90;;
6089;SDS011;3073;42.660;23.316;2023-02-15T14:39:00;36.70;;;21.50;;
6089;SDS011;3073;42.660;23.316;2023-02-15T14:42:01;34.10;;;21.47;;
6089;SDS011;3073;42.660;23.316;2023-02-15T14:44:38;38.33;;;21.63;;
6089;SDS011;3073;42.660;23.316;2023-02-15T14:47:10;35.47;;;21.03;;
6089;SDS011;3073;42.660;23.316;2023-02-15T14:49:42;36.20;;;23.07;;
6089;SDS011;3073;42.660;23.316;2023-02-15T14:52:09;40.77;;;22.90;;
6089;SDS011;3073;42.660;23.316;2023-02-15T14:54:54;34.10;;;23.43;;
6089;SDS011;3073;42.660;23.316;2023-02-15T14:57:33;44.27;;;25.17;;
6089;SDS011;3073;42.660;23.316;2023-02-15T15:00:01;35.07;;;21.83;;
6089;SDS011;3073;42.660;23.316;2023-02-15T15:02:47;36.93;;;23.70;;
6089;SDS011;3073;42.660;23.316;2023-02-15T15:05:18;37.97;;;22.83;;
6089;SDS011;3073;42.660;23.316;2023-02-15T15:07:48;38.53;;;23.90;;
6089;SDS011;3073;42.660;23.316;2023-02-15T15:10:34;41.43;;;24.40;;
6089;SDS011;3073;42.660;23.316;2023-02-15T15:16:27;32.50;;;21.13;;